Sunday, September 23, 2018, 12:28 AM EDT
Back to Local

KMSS, Massena International -richards Fld

Location: Massena, NY, United States Lat: 44.933
Local Time: 12:28 AM EDT ( 4:28 GMT) Lon: -74.85
Time Zone: US/Eastern Elev: 213 ft

Show me the last for .
Show Decoded

2018-09-22 23:53 METAR KMSS 230353Z AUTO 00000KT 10SM CLR 06/05 A3024 RMK AO2 SLP244 T00560050 =
2018-09-22 22:53 METAR KMSS 230253Z AUTO 00000KT 10SM CLR 05/04 A3024 RMK AO2 SLP243 T00500044
                 58001 =
2018-09-22 21:53 METAR KMSS 230153Z AUTO 00000KT 10SM CLR 06/05 A3024 RMK AO2 SLP244 T00610050 =
2018-09-22 20:53 METAR KMSS 230053Z AUTO 20004KT 10SM CLR 07/06 A3025 RMK AO2 SLP247 T00720061 =
2018-09-22 19:53 METAR KMSS 222353Z AUTO 00000KT 10SM CLR 08/06 A3024 RMK AO2 SLP244 T00830061
                 10161 20083 53007 =
2018-09-22 18:53 METAR KMSS 222253Z AUTO 26003KT 10SM CLR 12/04 A3023 RMK AO2 SLP239 T01220044 =
2018-09-22 17:53 METAR KMSS 222153Z AUTO 26005KT 10SM CLR 15/04 A3023 RMK AO2 SLP238 T01500039 =
2018-09-22 16:53 METAR KMSS 222053Z AUTO 10SM CLR 16/03 A3022 RMK AO2 SLP235 T01560033 56012 =
2018-09-22 15:53 METAR KMSS 221953Z AUTO 25007KT 10SM SCT049 16/04 A3023 RMK AO2 SLP237 T01560044
                 =
2018-09-22 14:53 METAR KMSS 221853Z AUTO 26005KT 10SM FEW047 14/04 A3024 RMK AO2 SLP242 T01440044
                 =
2018-09-22 13:53 METAR KMSS 221753Z AUTO VRB04KT 10SM BKN044 14/04 A3026 RMK AO2 SLP247 T01390044
                 10144 20106 58010 =
2018-09-22 12:53 METAR KMSS 221653Z AUTO 30009KT 10SM BKN038 13/04 A3028 RMK AO2 SLP254 T01280044
                 =
2018-09-22 11:53 METAR KMSS 221553Z AUTO 26004KT 10SM BKN037 12/04 A3029 RMK AO2 SLP257 T01220044
                 =
2018-09-22 10:53 METAR KMSS 221453Z AUTO 32006KT 10SM BKN037 12/04 A3029 RMK AO2 SLP256 T01170039
                 51027 =
2018-09-22 09:53 METAR KMSS 221353Z AUTO 31009KT 10SM CLR 12/05 A3026 RMK AO2 SLP248 T01170050 =
2018-09-22 08:53 METAR KMSS 221253Z AUTO 30006KT 10SM BKN039 11/05 A3024 RMK AO2 SLP241 T01060050
                 =
2018-09-22 07:53 METAR KMSS 221153Z AUTO 31007KT 10SM BKN038 11/04 A3021 RMK AO2 SLP229 70077
                 T01060044 10183 20106 51054 =
2018-09-22 06:53 METAR KMSS 221053Z AUTO 32008G18KT 10SM OVC035 11/05 A3017 RMK AO2 PRESRR SLP215
                 T01110050 =
2018-09-22 05:53 METAR KMSS 220953Z AUTO 32009G20KT 10SM FEW033 11/05 A3011 RMK AO2 PRESRR SLP195
                 T01110050 =
2018-09-22 04:53 METAR KMSS 220853Z AUTO 29016G27KT 10SM CLR 12/06 A3005 RMK AO2 PK WND
                 30033/0821 PRESRR SLP174 T01220056 53071 =
2018-09-22 03:53 METAR KMSS 220753Z AUTO 28019G25KT 10SM SCT040 14/08 A2998 RMK AO2 PK WND
                 28029/0741 PRESRR SLP150 T01440078 =
2018-09-22 02:53 METAR KMSS 220653Z AUTO 28015G23KT 10SM OVC065 17/08 A2990 RMK AO2 PK WND
                 28035/0619 PRESRR SLP124 T01670078 =
2018-09-22 01:53 METAR KMSS 220553Z AUTO 27021G30KT 10SM FEW044 SCT055 18/11 A2984 RMK AO2 PK WND
                 26030/0550 PRESRR SLP102 60035 T01830106 10244 20183 53049 =
2018-09-22 00:53 METAR KMSS 220453Z AUTO 25013G26KT 10SM CLR 19/12 A2978 RMK AO2 PK WND
                 25035/0400 SLP084 T01940117 402830139 =

Support USWX by starting your Amazon purchase here.